Time;durP1;ratioP1;P1;durP2;ratioP2;P2;SDS_P1;SDS_P2;PMS_P1;PMS_P2;Temp;Humidity;BMP_temperature;BMP_pressure;BME280_temperature;BME280_humidity;BME280_pressure;Samples;Min_cycle;Max_cycle;Signal;HPM_P1;HPM_P2
2023/02/01 00:00:00;;;;;;;24.60;3.17;;;6.30;99.90;;;;;;5028663;28;20042;-38
2023/02/01 00:02:26;;;;;;;14.88;2.63;;;6.30;99.90;;;;;;5030151;28;20029;-39
2023/02/01 00:04:51;;;;;;;6.90;1.83;;;6.40;99.90;;;;;;5027835;28;20116;-41
2023/02/01 00:07:17;;;;;;;13.45;1.90;;;6.40;99.90;;;;;;5031884;28;20101;-40
2023/02/01 00:09:43;;;;;;;14.98;2.22;;;6.40;99.90;;;;;;5033707;28;20447;-38
2023/02/01 00:12:08;;;;;;;15.48;2.88;;;6.40;99.90;;;;;;5031824;28;20036;-35
2023/02/01 00:14:38;;;;;;;16.55;2.55;;;6.30;99.90;;;;;;5027669;28;20029;-36
2023/02/01 00:17:06;;;;;;;11.63;2.20;;;6.30;99.90;;;;;;5017819;28;20045;-40
2023/02/01 00:19:31;;;;;;;;;;;6.30;99.90;;;;;;5018039;28;20021;-38
2023/02/01 00:21:57;;;;;;;17.50;2.90;;;6.40;99.90;;;;;;5027843;28;20411;-35
2023/02/01 00:24:22;;;;;;;11.15;3.35;;;6.40;99.90;;;;;;5025461;28;20029;-39
2023/02/01 00:26:48;;;;;;;16.48;2.13;;;6.50;99.90;;;;;;5032979;28;20025;-38
2023/02/01 00:29:19;;;;;;;10.73;2.15;;;6.50;99.90;;;;;;5031052;28;20398;-37
2023/02/01 00:31:45;;;;;;;12.65;1.92;;;6.40;99.90;;;;;;5019765;28;20359;-38
2023/02/01 00:34:16;;;;;;;15.45;2.83;;;6.50;99.90;;;;;;5024315;28;20036;-37
2023/02/01 00:36:43;;;;;;;10.32;1.40;;;6.60;99.90;;;;;;5033371;28;20037;-39
2023/02/01 00:39:10;;;;;;;13.50;2.77;;;6.70;99.90;;;;;;5033355;28;20163;-37
2023/02/01 00:41:36;;;;;;;17.85;2.10;;;6.70;99.90;;;;;;5028501;28;20026;-40
2023/02/01 00:44:02;;;;;;;16.17;2.67;;;6.80;99.90;;;;;;5033567;28;20386;-38
2023/02/01 00:46:28;;;;;;;9.07;1.83;;;6.80;99.90;;;;;;5030396;28;20026;-36
2023/02/01 00:48:54;;;;;;;16.95;1.92;;;6.90;99.90;;;;;;5032342;28;20022;-41
2023/02/01 00:51:28;;;;;;;7.85;1.65;;;6.90;99.90;;;;;;5030999;28;20061;-36
2023/02/01 00:53:54;;;;;;;11.02;1.90;;;7.00;99.90;;;;;;5033260;28;20025;-36
2023/02/01 00:56:19;;;;;;;15.23;3.15;;;6.90;99.90;;;;;;5019425;28;20041;-35
2023/02/01 00:58:45;;;;;;;19.48;2.13;;;7.00;99.90;;;;;;5013389;28;20026;-38
2023/02/01 01:01:23;;;;;;;9.38;1.98;;;7.00;99.90;;;;;;5021213;28;20080;-39
2023/02/01 01:03:55;;;;;;;19.50;4.10;;;7.00;99.90;;;;;;5023981;28;20037;-41
2023/02/01 01:06:25;;;;;;;14.18;1.77;;;7.00;99.90;;;;;;5012854;28;20426;-38
2023/02/01 01:08:52;;;;;;;15.77;2.03;;;7.00;99.90;;;;;;5019316;28;20030;-35
2023/02/01 01:11:24;;;;;;;13.77;2.00;;;7.00;99.90;;;;;;5030373;28;20025;-38
2023/02/01 01:13:52;;;;;;;13.13;2.03;;;6.90;99.90;;;;;;5013356;28;20466;-40
2023/02/01 01:16:19;;;;;;;8.75;1.88;;;6.90;99.90;;;;;;5015812;28;20037;-35
2023/02/01 01:18:45;;;;;;;11.93;2.38;;;7.00;99.90;;;;;;5027135;28;20168;-37
2023/02/01 01:21:14;;;;;;;13.10;1.85;;;6.90;99.90;;;;;;5019289;28;20084;-46
2023/02/01 01:23:58;;;;;;;11.35;2.13;;;7.00;99.90;;;;;;5012792;28;20081;-39
2023/02/01 01:26:26;;;;;;;23.75;2.20;;;7.00;99.90;;;;;;5013360;28;20479;-40
2023/02/01 01:28:52;;;;;;;11.82;1.30;;;7.00;99.90;;;;;;5012714;28;20080;-51
2023/02/01 01:31:19;;;;;;;18.83;2.40;;;7.00;99.90;;;;;;5024546;28;20470;-41
2023/02/01 01:33:51;;;;;;;13.52;2.92;;;7.00;99.90;;;;;;5023211;28;20033;-41
2023/02/01 01:36:17;;;;;;;19.10;3.10;;;7.00;99.90;;;;;;5014838;28;20505;-39
2023/02/01 01:38:43;;;;;;;17.55;2.88;;;7.00;99.90;;;;;;5013154;28;20113;-39
2023/02/01 01:41:14;;;;;;;14.02;2.47;;;7.10;99.90;;;;;;5012736;28;20440;-43
2023/02/01 01:44:00;;;;;;;22.73;2.90;;;7.10;99.90;;;;;;5012425;28;20486;-40
2023/02/01 01:46:37;;;;;;;12.07;2.30;;;7.10;99.90;;;;;;5012696;28;20537;-40
2023/02/01 01:49:10;;;;;;;9.20;1.90;;;7.10;99.90;;;;;;5012848;28;20108;-39
2023/02/01 01:51:49;;;;;;;17.02;2.30;;;7.10;99.90;;;;;;5017003;28;20034;-44
2023/02/01 01:54:19;;;;;;;18.80;2.00;;;7.10;99.90;;;;;;5013121;28;20441;-39
2023/02/01 01:56:50;;;;;;;6.78;1.48;;;7.10;99.90;;;;;;5024379;28;20021;-39
2023/02/01 01:59:16;;;;;;;14.70;2.15;;;7.20;99.90;;;;;;5030423;28;20033;-44
2023/02/01 02:01:43;;;;;;;12.15;1.98;;;7.30;99.90;;;;;;5026017;28;20029;-40
2023/02/01 02:04:08;;;;;;;11.38;2.08;;;7.30;99.90;;;;;;5016807;28;20068;-39
2023/02/01 02:07:01;;;;;;;36.78;3.85;;;7.20;99.90;;;;;;5012704;28;20033;-40
2023/02/01 02:09:27;;;;;;;13.90;1.98;;;7.30;99.90;;;;;;5010371;28;20520;-40
2023/02/01 02:11:52;;;;;;;24.85;2.47;;;7.40;99.90;;;;;;5032580;28;20029;-39
2023/02/01 02:14:21;;;;;;;13.98;1.92;;;7.40;99.90;;;;;;5023382;28;20037;-38
2023/02/01 02:17:05;;;;;;;8.25;1.52;;;7.40;99.90;;;;;;5013059;28;20121;-42
2023/02/01 02:19:49;;;;;;;31.40;4.25;;;7.40;99.90;;;;;;5017304;28;20537;-41
2023/02/01 02:22:36;;;;;;;26.08;2.78;;;7.40;99.90;;;;;;5017696;28;20033;-40
2023/02/01 02:25:42;;;;;;;11.70;2.00;;;7.40;99.90;;;;;;5026267;28;20481;-40
2023/02/01 02:28:59;;;;;;;17.98;2.60;;;7.40;99.90;;;;;;5033423;28;20508;-41
2023/02/01 02:31:49;;;;;;;11.00;2.38;;;7.50;99.90;;;;;;5023620;28;20466;-42
2023/02/01 02:34:25;;;;;;;12.73;2.28;;;7.50;99.90;;;;;;5032017;28;20122;-37
2023/02/01 02:37:28;;;;;;;28.00;2.85;;;7.50;99.90;;;;;;5035788;28;20021;-43
2023/02/01 02:40:20;;;;;;;19.13;2.42;;;7.50;99.90;;;;;;5019579;28;20053;-39
2023/02/01 02:48:47;;;;;;;19.88;3.75;;;7.60;99.90;;;;;;5030449;28;20536;-54
2023/02/01 03:05:45;;;;;;;11.95;2.03;;;7.60;99.90;;;;;;5035038;28;20052;-40
2023/02/01 03:08:12;;;;;;;31.25;2.35;;;7.60;99.90;;;;;;5032091;28;20805;-43
2023/02/01 03:10:55;;;;;;;18.88;2.72;;;7.50;99.90;;;;;;5020490;28;20466;-43
2023/02/01 03:13:56;;;;;;;19.02;2.50;;;7.50;99.90;;;;;;5014873;28;20022;-37
2023/02/01 03:16:42;;;;;;;21.80;3.45;;;7.40;99.90;;;;;;5024344;28;20025;-49
2023/02/01 03:19:20;;;;;;;18.38;3.70;;;7.40;99.90;;;;;;5034655;28;20021;-40
2023/02/01 03:22:06;;;;;;;19.60;2.58;;;7.40;99.90;;;;;;5035092;28;20029;-34
2023/02/01 03:24:52;;;;;;;21.27;2.78;;;7.30;99.90;;;;;;5032904;28;20413;-36
2023/02/01 03:27:59;;;;;;;13.65;3.03;;;7.20;99.90;;;;;;5030772;28;20026;-38
2023/02/01 03:30:35;;;;;;;17.80;3.37;;;7.10;99.90;;;;;;5030172;28;20068;-37
2023/02/01 03:33:04;;;;;;;10.65;1.33;;;7.10;99.90;;;;;;5032812;28;20716;-38
2023/02/01 03:36:00;;;;;;;21.08;2.13;;;7.10;99.90;;;;;;5031360;28;20021;-40
2023/02/01 03:38:53;;;;;;;21.17;1.85;;;7.20;99.90;;;;;;5015030;28;20049;-36
2023/02/01 03:41:26;;;;;;;17.90;1.90;;;7.10;99.90;;;;;;5019961;28;20430;-38
2023/02/01 03:44:06;;;;;;;19.65;2.58;;;7.10;99.90;;;;;;5015082;28;20093;-38
2023/02/01 03:46:40;;;;;;;16.95;1.90;;;7.10;99.90;;;;;;5016462;28;20061;-35
2023/02/01 03:49:09;;;;;;;16.33;2.35;;;7.10;99.90;;;;;;5032982;28;20378;-41
2023/02/01 03:51:38;;;;;;;10.07;1.75;;;7.10;99.90;;;;;;5020453;28;20474;-40
2023/02/01 03:54:06;;;;;;;20.73;2.25;;;7.20;99.90;;;;;;5034239;28;20032;-38
2023/02/01 03:56:36;;;;;;;24.98;3.55;;;7.10;99.90;;;;;;5024364;28;20064;-41
2023/02/01 03:59:01;;;;;;;20.75;2.95;;;7.20;99.90;;;;;;5033347;28;20512;-36
2023/02/01 04:01:29;;;;;;;11.80;2.80;;;7.20;99.90;;;;;;5033086;28;20287;-37
2023/02/01 04:03:55;;;;;;;20.27;2.20;;;7.30;99.90;;;;;;5034139;28;20484;-41
2023/02/01 04:06:22;;;;;;;14.23;1.88;;;7.40;99.90;;;;;;5032721;28;20398;-40
2023/02/01 04:08:47;;;;;;;14.10;2.03;;;7.40;99.90;;;;;;5034246;28;20499;-39
2023/02/01 04:11:13;;;;;;;12.00;2.00;;;7.40;99.90;;;;;;5023770;28;20030;-38
2023/02/01 04:13:39;;;;;;;21.83;3.10;;;7.40;99.90;;;;;;5014293;28;20018;-37
2023/02/01 04:16:05;;;;;;;17.42;2.78;;;7.40;99.90;;;;;;5017425;28;20056;-45
2023/02/01 04:18:30;;;;;;;21.55;2.47;;;7.40;99.90;;;;;;5016635;28;20025;-39
2023/02/01 04:20:56;;;;;;;22.80;2.92;;;7.40;99.90;;;;;;5027300;28;20028;-37
2023/02/01 04:23:21;;;;;;;15.73;2.83;;;7.40;99.90;;;;;;5032394;28;20026;-35
2023/02/01 04:25:48;;;;;;;17.70;2.40;;;7.40;99.90;;;;;;5028387;28;20501;-39
2023/02/01 04:28:13;;;;;;;15.00;2.58;;;7.30;99.90;;;;;;5014049;28;20113;-35
2023/02/01 04:30:39;;;;;;;12.60;2.10;;;7.30;99.90;;;;;;5013553;28;20489;-35
2023/02/01 04:33:07;;;;;;;12.18;2.35;;;7.40;99.90;;;;;;5031460;28;20065;-37
2023/02/01 04:35:33;;;;;;;19.73;3.15;;;7.40;99.90;;;;;;5031730;28;20037;-40
2023/02/01 04:38:00;;;;;;;13.75;1.67;;;7.40;99.90;;;;;;5033408;28;20477;-38
2023/02/01 04:40:25;;;;;;;23.48;2.97;;;7.40;99.90;;;;;;5033284;28;20037;-38
2023/02/01 04:42:51;;;;;;;18.13;2.40;;;7.40;99.90;;;;;;5033440;28;20522;-37
2023/02/01 04:45:16;;;;;;;23.40;3.20;;;7.40;99.90;;;;;;5028055;28;20497;-42
2023/02/01 04:47:42;;;;;;;25.63;2.53;;;7.30;99.90;;;;;;5013764;28;20108;-40
2023/02/01 04:50:10;;;;;;;20.02;2.00;;;7.30;99.90;;;;;;5013434;28;20091;-37
2023/02/01 04:52:36;;;;;;;14.27;3.13;;;7.30;99.90;;;;;;5029832;28;20386;-39
2023/02/01 04:55:03;;;;;;;16.20;2.00;;;7.20;99.90;;;;;;5030559;28;20096;-39
2023/02/01 04:57:28;;;;;;;14.20;2.10;;;7.20;99.90;;;;;;5018904;28;20029;-43
2023/02/01 04:59:54;;;;;;;14.27;2.40;;;7.20;99.90;;;;;;5023559;28;20030;-31
2023/02/01 05:02:20;;;;;;;18.27;2.88;;;7.10;99.90;;;;;;5031090;28;20043;-40
2023/02/01 05:04:45;;;;;;;16.40;2.28;;;7.10;99.90;;;;;;5017176;28;20520;-38
2023/02/01 05:07:11;;;;;;;17.98;3.17;;;7.00;99.90;;;;;;5029167;28;20021;-41
2023/02/01 05:09:37;;;;;;;12.18;1.83;;;7.00;99.90;;;;;;5029034;28;20052;-36
2023/02/01 05:14:47;;;;;;;23.95;2.75;;;7.00;99.90;;;;;;5032622;28;20040;-39
2023/02/01 05:17:13;;;;;;;16.05;2.10;;;7.00;99.90;;;;;;5031973;28;20501;-38
2023/02/01 05:19:38;;;;;;;16.63;2.20;;;6.90;99.90;;;;;;5028021;28;20021;-40
2023/02/01 05:22:04;;;;;;;15.63;2.78;;;6.90;99.90;;;;;;5024329;28;20030;-40
2023/02/01 05:24:30;;;;;;;24.88;2.80;;;6.90;99.90;;;;;;5031020;28;20029;-37
2023/02/01 05:26:55;;;;;;;19.05;2.20;;;6.90;99.90;;;;;;5029183;28;20033;-36
2023/02/01 05:29:21;;;;;;;17.95;2.30;;;6.90;99.90;;;;;;5016782;28;20155;-37
2023/02/01 05:31:47;;;;;;;19.08;2.35;;;6.90;99.90;;;;;;5032420;28;20112;-37
2023/02/01 05:34:13;;;;;;;16.45;2.13;;;6.90;99.90;;;;;;5031715;28;20026;-38
2023/02/01 05:36:39;;;;;;;16.80;2.03;;;6.90;99.90;;;;;;5031461;28;20025;-38
2023/02/01 05:39:04;;;;;;;14.43;2.05;;;7.00;99.90;;;;;;5023935;28;20036;-40
2023/02/01 05:41:30;;;;;;;13.88;2.58;;;6.90;99.90;;;;;;5017131;28;20507;-38
2023/02/01 05:43:56;;;;;;;17.90;3.50;;;7.00;99.90;;;;;;5021799;28;20025;-39
2023/02/01 05:46:21;;;;;;;14.57;2.53;;;7.00;99.90;;;;;;5032545;28;20072;-45
2023/02/01 05:48:47;;;;;;;15.27;3.47;;;7.00;99.90;;;;;;5032284;28;20030;-41
2023/02/01 05:51:12;;;;;;;16.45;2.13;;;7.10;99.90;;;;;;5031440;28;20029;-41
2023/02/01 05:53:38;;;;;;;14.18;1.67;;;7.00;99.90;;;;;;5035589;28;20477;-40
2023/02/01 05:56:04;;;;;;;14.38;2.17;;;7.10;99.90;;;;;;5035431;28;20028;-40
2023/02/01 05:58:30;;;;;;;27.38;3.53;;;7.00;99.90;;;;;;5036402;28;20029;-40
2023/02/01 06:00:59;;;;;;;17.80;2.03;;;7.10;99.90;;;;;;5037557;28;20090;-39
2023/02/01 06:03:25;;;;;;;21.80;3.28;;;7.10;99.90;;;;;;5030775;28;20056;-39
2023/02/01 06:05:51;;;;;;;18.88;2.70;;;7.00;99.90;;;;;;5034412;28;20076;-41
2023/02/01 06:08:17;;;;;;;16.15;2.63;;;7.00;99.90;;;;;;5028646;28;20025;-42
2023/02/01 06:10:42;;;;;;;13.52;2.00;;;7.00;99.90;;;;;;5030325;28;20112;-40
2023/02/01 06:13:08;;;;;;;22.00;3.13;;;7.00;99.90;;;;;;5032566;28;20104;-39
2023/02/01 06:15:34;;;;;;;11.23;2.17;;;7.00;99.90;;;;;;5035684;28;20068;-40
2023/02/01 06:17:59;;;;;;;25.23;3.22;;;7.00;99.90;;;;;;5029430;28;20405;-44
2023/02/01 06:20:25;;;;;;;6.88;1.73;;;6.90;99.90;;;;;;5034145;28;20086;-41
2023/02/01 06:22:52;;;;;;;10.40;1.90;;;6.90;99.90;;;;;;5032998;28;20428;-40
2023/02/01 06:25:18;;;;;;;20.77;2.65;;;6.80;99.90;;;;;;5018468;28;20470;-42
2023/02/01 06:28:02;;;;;;;20.35;3.33;;;6.80;99.90;;;;;;5016164;28;20033;-40
2023/02/01 06:30:28;;;;;;;9.55;2.65;;;6.80;99.90;;;;;;5016029;28;20033;-43
2023/02/01 06:32:54;;;;;;;13.57;2.28;;;6.80;99.90;;;;;;5017765;28;20033;-41
2023/02/01 06:35:19;;;;;;;20.70;2.50;;;6.80;99.90;;;;;;5015467;28;20467;-39
2023/02/01 06:37:45;;;;;;;16.20;3.00;;;6.80;99.90;;;;;;5015200;28;20161;-38
2023/02/01 06:40:11;;;;;;;13.77;2.20;;;6.80;99.90;;;;;;5033551;28;20045;-42
2023/02/01 06:42:37;;;;;;;14.13;2.22;;;6.80;99.90;;;;;;5035453;28;20100;-44
2023/02/01 06:45:03;;;;;;;15.80;2.58;;;6.90;99.90;;;;;;5035797;28;20477;-45
2023/02/01 06:47:29;;;;;;;23.02;2.55;;;6.90;99.90;;;;;;5032449;28;20017;-41
2023/02/01 06:49:54;;;;;;;7.10;2.15;;;7.00;99.90;;;;;;5034104;28;20470;-43
2023/02/01 06:52:20;;;;;;;20.80;4.10;;;7.00;99.90;;;;;;5035370;28;20083;-41
2023/02/01 06:54:45;;;;;;;18.95;3.58;;;7.00;99.90;;;;;;5034717;28;20371;-40
2023/02/01 06:57:11;;;;;;;18.27;2.53;;;7.00;99.90;;;;;;5033126;28;20038;-41
2023/02/01 06:59:37;;;;;;;23.77;2.08;;;7.00;99.90;;;;;;5020886;28;20505;-42
2023/02/01 07:02:03;;;;;;;39.85;3.70;;;7.10;99.90;;;;;;5015390;28;20116;-43
2023/02/01 07:04:28;;;;;;;13.82;2.35;;;7.10;99.90;;;;;;5014380;28;20137;-50
2023/02/01 07:06:54;;;;;;;10.60;2.45;;;7.10;99.90;;;;;;5015360;28;20045;-52
2023/02/01 07:09:20;;;;;;;12.55;1.88;;;7.10;99.90;;;;;;5015411;28;20072;-42
2023/02/01 07:11:45;;;;;;;14.20;1.70;;;7.10;99.90;;;;;;5022088;28;20469;-41
2023/02/01 07:14:11;;;;;;;12.60;1.55;;;7.20;99.90;;;;;;5025154;28;20026;-47
2023/02/01 07:16:37;;;;;;;19.35;2.17;;;7.20;99.90;;;;;;5030754;28;20064;-44
2023/02/01 07:19:03;;;;;;;11.13;2.60;;;7.10;99.90;;;;;;5026522;28;20040;-41
2023/02/01 07:21:28;;;;;;;12.15;2.05;;;7.20;99.90;;;;;;5034707;28;20030;-41
2023/02/01 07:23:54;;;;;;;21.15;2.60;;;7.20;99.90;;;;;;5034079;28;20039;-38
2023/02/01 07:26:20;;;;;;;10.75;2.17;;;7.30;99.90;;;;;;5027733;28;20496;-38
2023/02/01 07:28:46;;;;;;;15.63;2.67;;;7.20;99.90;;;;;;5028309;28;20026;-41
2023/02/01 07:31:20;;;;;;;11.80;1.95;;;7.20;99.90;;;;;;5033453;28;20049;-40
2023/02/01 07:33:46;;;;;;;22.42;2.28;;;7.30;99.90;;;;;;5024974;28;20025;-43
2023/02/01 07:36:14;;;;;;;6.18;2.00;;;7.30;99.90;;;;;;5019122;28;20037;-38
2023/02/01 07:38:40;;;;;;;;;;;7.30;99.90;;;;;;5028475;28;20466;-37
2023/02/01 07:41:06;;;;;;;17.25;2.65;;;7.20;99.90;;;;;;5034260;28;20000;-40
2023/02/01 07:43:35;;;;;;;13.68;1.83;;;7.10;99.90;;;;;;5033616;28;20057;-40
2023/02/01 07:46:02;;;;;;;12.35;3.28;;;7.10;99.90;;;;;;5018878;28;20026;-38
2023/02/01 07:48:28;;;;;;;15.55;2.50;;;7.10;99.90;;;;;;5030712;28;20022;-34
2023/02/01 07:50:58;;;;;;;16.80;2.15;;;7.10;99.90;;;;;;5032936;28;20048;-34
2023/02/01 07:53:24;;;;;;;20.02;2.90;;;7.10;99.90;;;;;;5016488;28;20455;-38
2023/02/01 07:55:49;;;;;;;13.07;2.72;;;7.10;99.90;;;;;;5027164;28;20064;-38
2023/02/01 07:58:15;;;;;;;8.68;2.10;;;7.10;99.90;;;;;;5030925;28;20123;-38
2023/02/01 08:03:25;;;;;;;13.70;2.58;;;7.10;99.90;;;;;;5033661;28;20444;-40
2023/02/01 08:05:57;;;;;;;14.35;2.20;;;7.20;99.90;;;;;;5029083;28;20042;-39
2023/02/01 08:08:23;;;;;;;17.00;2.28;;;7.20;99.90;;;;;;5016085;28;20454;-41
2023/02/01 08:10:49;;;;;;;13.25;2.15;;;7.10;99.90;;;;;;5014047;28;20040;-41
2023/02/01 08:13:15;;;;;;;7.80;1.50;;;7.10;99.90;;;;;;5027455;28;20100;-41
2023/02/01 08:15:40;;;;;;;24.00;2.60;;;7.10;99.90;;;;;;5027535;28;20083;-45
2023/02/01 08:18:06;;;;;;;6.07;1.88;;;7.10;99.90;;;;;;5017983;28;20053;-43
2023/02/01 08:20:34;;;;;;;9.25;2.03;;;7.20;99.90;;;;;;5029882;28;20112;-43
2023/02/01 08:22:59;;;;;;;11.15;1.88;;;7.20;99.90;;;;;;5032882;28;20488;-40
2023/02/01 08:25:25;;;;;;;21.45;2.88;;;7.10;99.90;;;;;;5030635;28;20025;-43
2023/02/01 08:27:51;;;;;;;17.95;2.03;;;7.10;99.90;;;;;;5028736;28;20025;-34
2023/02/01 08:30:17;;;;;;;16.33;2.97;;;7.20;99.90;;;;;;5025793;28;20434;-38
2023/02/01 08:32:43;;;;;;;16.75;2.22;;;7.20;99.90;;;;;;5030033;28;20040;-41
2023/02/01 08:35:09;;;;;;;22.15;2.55;;;7.20;99.90;;;;;;5028741;28;20026;-39
2023/02/01 08:37:35;;;;;;;15.60;2.85;;;7.20;99.90;;;;;;5028098;28;20138;-41
2023/02/01 08:40:01;;;;;;;17.20;2.53;;;7.30;99.90;;;;;;5023990;28;20184;-42
2023/02/01 08:45:11;;;;;;;5.97;1.38;;;7.30;99.90;;;;;;5029304;28;20044;-38
2023/02/01 08:47:36;;;;;;;15.55;2.55;;;7.40;99.90;;;;;;5030320;28;20033;-42
2023/02/01 08:50:03;;;;;;;12.07;2.25;;;7.50;99.90;;;;;;5028569;28;20044;-36
2023/02/01 08:52:28;;;;;;;18.25;1.95;;;7.60;99.90;;;;;;5024077;28;20231;-35
2023/02/01 08:54:54;;;;;;;10.20;1.60;;;7.60;99.90;;;;;;5029133;28;20152;-34
2023/02/01 08:57:20;;;;;;;14.95;2.63;;;7.70;99.90;;;;;;5031361;28;20425;-38
2023/02/01 08:59:45;;;;;;;11.88;1.80;;;7.80;99.90;;;;;;5025963;28;20087;-37
2023/02/01 09:02:13;;;;;;;22.50;2.15;;;8.00;99.90;;;;;;5014324;28;20403;-39
2023/02/01 09:04:39;;;;;;;15.77;3.80;;;7.90;99.90;;;;;;5030247;28;20045;-36
2023/02/01 09:07:04;;;;;;;20.17;2.92;;;8.00;99.90;;;;;;5032882;28;20026;-37
2023/02/01 09:09:30;;;;;;;11.50;2.20;;;8.10;99.90;;;;;;5033140;28;20076;-36
2023/02/01 09:11:56;;;;;;;7.60;2.22;;;8.00;99.90;;;;;;5030630;28;20471;-38
2023/02/01 09:14:21;;;;;;;7.93;2.25;;;8.00;99.90;;;;;;5018945;28;20034;-40
2023/02/01 09:16:47;;;;;;;17.08;1.70;;;8.20;99.90;;;;;;5013325;28;20030;-36
2023/02/01 09:19:12;;;;;;;9.30;1.98;;;8.20;99.90;;;;;;5017575;28;20113;-37
2023/02/01 09:21:38;;;;;;;13.15;1.65;;;8.30;99.90;;;;;;5021487;28;20033;-40
2023/02/01 09:24:04;;;;;;;13.30;1.95;;;8.40;99.90;;;;;;5016993;28;20448;-36
2023/02/01 09:26:30;;;;;;;19.73;1.80;;;8.50;99.90;;;;;;5030007;28;20036;-37
2023/02/01 09:28:56;;;;;;;25.65;3.80;;;8.50;99.90;;;;;;5030561;28;20414;-36
2023/02/01 09:31:21;;;;;;;21.95;2.15;;;8.40;99.90;;;;;;5030795;28;20018;-38
2023/02/01 09:33:47;;;;;;;10.25;1.60;;;8.40;99.90;;;;;;5030170;28;20030;-41
2023/02/01 09:36:12;;;;;;;10.23;3.08;;;8.40;99.90;;;;;;5028111;28;20152;-39
2023/02/01 09:38:38;;;;;;;13.32;2.35;;;8.40;99.90;;;;;;5029014;28;20025;-34
2023/02/01 09:41:27;;;;;;;19.02;2.65;;;8.40;99.90;;;;;;5028181;28;20537;-41
2023/02/01 09:44:17;;;;;;;18.63;2.50;;;8.40;99.90;;;;;;5030322;28;20481;-42
2023/02/01 09:46:44;;;;;;;14.57;2.00;;;8.40;99.90;;;;;;5013129;28;20025;-40
2023/02/01 09:49:19;;;;;;;13.75;2.33;;;8.40;99.90;;;;;;5018075;28;20033;-32
2023/02/01 09:51:48;;;;;;;9.77;2.13;;;8.50;99.90;;;;;;5019437;28;20114;-37
2023/02/01 09:54:18;;;;;;;15.32;1.90;;;8.40;99.90;;;;;;5014319;28;20033;-42
2023/02/01 09:56:57;;;;;;;23.45;2.42;;;8.30;99.90;;;;;;5031176;28;20037;-39
2023/02/01 09:59:39;;;;;;;13.82;2.75;;;8.30;99.90;;;;;;5016041;28;20045;-39
2023/02/01 10:02:14;;;;;;;17.05;1.90;;;8.30;99.90;;;;;;5029973;28;20044;-39
2023/02/01 10:04:40;;;;;;;15.32;2.85;;;8.20;99.90;;;;;;5019450;28;20042;-37
2023/02/01 10:07:27;;;;;;;28.73;3.33;;;8.20;99.90;;;;;;5023743;28;20410;-40
2023/02/01 10:09:58;;;;;;;16.03;2.93;;;8.20;99.90;;;;;;5029002;28;20509;-40
2023/02/01 10:12:36;;;;;;;16.75;3.78;;;8.20;99.90;;;;;;5023223;28;20040;-35
2023/02/01 10:15:23;;;;;;;11.77;1.92;;;8.20;99.90;;;;;;5031861;28;20029;-39
2023/02/01 10:17:48;;;;;;;14.68;2.03;;;8.20;99.90;;;;;;5024781;28;20108;-40
2023/02/01 10:20:30;;;;;;;20.75;2.88;;;8.10;99.90;;;;;;5027146;28;20463;-39
2023/02/01 10:23:27;;;;;;;12.02;2.95;;;8.00;99.90;;;;;;5013766;28;20030;-37
2023/02/01 10:26:04;;;;;;;14.05;2.60;;;8.00;99.90;;;;;;5017578;28;20029;-40
2023/02/01 10:28:34;;;;;;;17.60;2.53;;;7.90;99.90;;;;;;5015921;28;20021;-40
2023/02/01 10:31:01;;;;;;;15.95;2.97;;;7.90;99.90;;;;;;5025695;28;20021;-39
2023/02/01 10:33:33;;;;;;;12.88;2.53;;;7.90;99.90;;;;;;5031572;28;20030;-41
2023/02/01 10:36:05;;;;;;;7.57;2.10;;;7.90;99.90;;;;;;5021038;28;20037;-38
2023/02/01 10:38:33;;;;;;;15.55;2.60;;;7.90;99.90;;;;;;5033186;28;20506;-40
2023/02/01 10:41:10;;;;;;;17.60;2.00;;;8.00;99.90;;;;;;5032557;28;20112;-39
2023/02/01 10:43:36;;;;;;;11.63;1.67;;;8.10;99.90;;;;;;5030530;28;20496;-43
2023/02/01 10:46:02;;;;;;;12.80;3.05;;;8.00;99.90;;;;;;5025311;28;20289;-40
2023/02/01 10:48:29;;;;;;;18.73;2.55;;;8.10;99.90;;;;;;5027295;28;20497;-40
2023/02/01 10:51:05;;;;;;;17.83;2.47;;;8.00;99.90;;;;;;5015629;28;20022;-40
2023/02/01 10:53:58;;;;;;;21.17;2.17;;;8.20;99.90;;;;;;5015553;28;20120;-37
2023/02/01 10:56:26;;;;;;;12.90;2.80;;;8.20;99.90;;;;;;5015677;28;20041;-40
2023/02/01 10:59:03;;;;;;;9.23;2.17;;;8.20;99.90;;;;;;5015403;28;20036;-41
2023/02/01 11:01:37;;;;;;;15.70;3.13;;;8.40;99.90;;;;;;5020886;28;20167;-40
2023/02/01 11:07:25;;;;;;;13.00;1.77;;;8.40;99.90;;;;;;5015347;28;20049;-42
2023/02/01 11:09:57;;;;;;;15.23;2.65;;;8.30;99.90;;;;;;5033873;28;20033;-42
2023/02/01 11:12:35;;;;;;;16.95;2.05;;;8.30;99.90;;;;;;5034424;28;20025;-44
2023/02/01 11:15:12;;;;;;;;;;;8.30;99.90;;;;;;5035539;28;20052;-41
2023/02/01 11:17:43;;;;;;;8.85;1.58;;;8.20;99.90;;;;;;5032091;28;20003;-40
2023/02/01 11:20:17;;;;;;;17.17;2.20;;;8.10;99.90;;;;;;5029841;28;20397;-37
2023/02/01 11:22:54;;;;;;;26.88;2.15;;;8.00;99.90;;;;;;5015095;28;20073;-35
2023/02/01 11:25:21;;;;;;;16.03;1.70;;;8.00;99.90;;;;;;5034228;28;20025;-40
2023/02/01 11:27:48;;;;;;;16.67;3.13;;;8.10;99.90;;;;;;5031499;28;20389;-38
2023/02/01 11:30:26;;;;;;;20.73;1.93;;;8.20;99.90;;;;;;5033618;28;20030;-37
2023/02/01 11:32:52;;;;;;;8.60;1.52;;;8.30;99.90;;;;;;5034764;28;20271;-37
2023/02/01 11:35:20;;;;;;;14.68;2.13;;;8.30;99.90;;;;;;5032296;28;20450;-34
2023/02/01 11:37:54;;;;;;;11.77;3.00;;;8.30;99.90;;;;;;5016640;28;20504;-36
2023/02/01 11:40:21;;;;;;;12.73;2.42;;;8.40;99.90;;;;;;5032836;28;20104;-40
2023/02/01 11:43:06;;;;;;;24.58;2.45;;;8.50;99.90;;;;;;5031118;28;20041;-40
2023/02/01 11:45:34;;;;;;;17.25;2.38;;;8.60;99.90;;;;;;5030515;28;20539;-43
2023/02/01 11:48:01;;;;;;;15.70;2.00;;;8.70;99.90;;;;;;5033584;28;20018;-41
2023/02/01 11:50:49;;;;;;;14.20;2.63;;;8.80;99.90;;;;;;5031756;28;20033;-40
2023/02/01 11:53:48;;;;;;;16.17;2.28;;;8.80;99.90;;;;;;5030818;28;20025;-43
2023/02/01 11:56:25;;;;;;;9.85;2.10;;;8.80;99.90;;;;;;5020074;28;20580;-40
2023/02/01 11:59:13;;;;;;;9.95;2.17;;;8.80;99.90;;;;;;5028999;28;20080;-46
2023/02/01 12:02:16;;;;;;;18.80;2.22;;;8.80;99.90;;;;;;5014344;28;20026;-43
2023/02/01 12:05:23;;;;;;;16.85;2.58;;;8.80;99.90;;;;;;5022965;28;20462;-38
2023/02/01 12:08:24;;;;;;;18.13;2.10;;;8.80;99.90;;;;;;5025220;28;20372;-38
2023/02/01 12:10:54;;;;;;;11.65;1.80;;;8.80;99.90;;;;;;5026279;28;20049;-38
2023/02/01 12:13:46;;;;;;;8.40;1.58;;;8.90;99.90;;;;;;5028877;28;20040;-37
2023/02/01 12:16:15;;;;;;;14.40;1.50;;;8.70;99.90;;;;;;5020328;28;20114;-38
2023/02/01 12:18:53;;;;;;;16.80;1.88;;;8.70;99.90;;;;;;5013988;28;20088;-39
2023/02/01 12:21:37;;;;;;;16.50;2.20;;;8.80;99.90;;;;;;5012351;28;20042;-36
2023/02/01 12:24:21;;;;;;;22.05;2.40;;;8.90;99.90;;;;;;5013956;28;20037;-39
2023/02/01 12:27:05;;;;;;;12.35;2.03;;;9.10;99.90;;;;;;5019769;28;20087;-38
2023/02/01 12:30:13;;;;;;;9.45;1.75;;;9.00;99.90;;;;;;5033580;28;20041;-39
2023/02/01 12:33:03;;;;;;;20.65;2.58;;;9.00;99.90;;;;;;5032359;28;20048;-38
2023/02/01 12:35:34;;;;;;;29.83;1.98;;;8.90;99.90;;;;;;5033468;28;20025;-38
2023/02/01 12:38:16;;;;;;;18.83;3.67;;;8.90;99.90;;;;;;5033678;28;20037;-40
2023/02/01 12:40:48;;;;;;;20.70;2.72;;;8.80;99.90;;;;;;5030777;28;20029;-36
2023/02/01 12:43:24;;;;;;;11.15;2.67;;;8.90;99.90;;;;;;5031950;28;20042;-37
2023/02/01 12:46:00;;;;;;;15.95;2.22;;;9.00;99.90;;;;;;5019835;28;20378;-34
2023/02/01 12:48:36;;;;;;;17.90;2.65;;;9.10;99.90;;;;;;5013518;28;20518;-35
2023/02/01 12:51:17;;;;;;;13.73;1.83;;;9.10;99.90;;;;;;5013275;28;20470;-43
2023/02/01 12:53:54;;;;;;;17.83;2.50;;;9.10;99.90;;;;;;5029088;28;20393;-43
2023/02/01 12:56:30;;;;;;;14.47;1.80;;;9.20;99.90;;;;;;5033116;28;20553;-41
2023/02/01 12:59:00;;;;;;;16.10;2.10;;;9.20;99.90;;;;;;5033149;28;20521;-41
2023/02/01 13:01:36;;;;;;;11.35;1.88;;;9.20;99.90;;;;;;5015296;28;20552;-43
2023/02/01 13:04:18;;;;;;;10.23;2.28;;;9.30;99.90;;;;;;5013421;28;20382;-40
2023/02/01 13:06:52;;;;;;;23.25;2.78;;;9.20;99.90;;;;;;5013108;28;20517;-41
2023/02/01 13:10:01;;;;;;;14.57;2.55;;;9.30;99.90;;;;;;5021123;28;20497;-41
2023/02/01 13:12:38;;;;;;;11.23;1.90;;;9.30;99.90;;;;;;5027798;28;20053;-44
2023/02/01 13:15:16;;;;;;;8.07;1.83;;;9.30;99.90;;;;;;5031961;28;20029;-44
2023/02/01 13:17:45;;;;;;;14.80;2.35;;;9.30;99.90;;;;;;5031674;28;20029;-43
2023/02/01 13:20:37;;;;;;;12.95;2.30;;;9.00;99.90;;;;;;5016429;28;20505;-40
2023/02/01 13:23:24;;;;;;;12.25;2.40;;;8.90;99.90;;;;;;5011960;28;20053;-39
2023/02/01 13:25:51;;;;;;;;;;;8.90;99.90;;;;;;5024385;28;20013;-40
2023/02/01 13:28:23;;;;;;;21.73;4.10;;;8.90;99.90;;;;;;5019400;28;20374;-41
2023/02/01 13:31:27;;;;;;;20.42;2.90;;;8.80;99.90;;;;;;5017875;28;20100;-39
2023/02/01 13:34:20;;;;;;;15.02;2.75;;;8.70;99.90;;;;;;5032808;28;20082;-41
2023/02/01 13:37:07;;;;;;;17.33;2.78;;;8.80;99.90;;;;;;5017382;28;20113;-42
2023/02/01 13:39:41;;;;;;;18.52;1.80;;;8.90;99.90;;;;;;5032627;28;20109;-42
2023/02/01 13:42:35;;;;;;;14.05;2.40;;;8.90;99.90;;;;;;5029532;28;20489;-42